sensor_id;sensor_type;location;lat;lon;timestamp;P1;durP1;ratioP1;P2;durP2;ratioP2
38944;SDS011;24732;49.088;8.286;2022-08-01T00:00:30;3.00;;;2.70;;
38944;SDS011;24732;49.088;8.286;2022-08-01T00:03:16;2.92;;;2.65;;
38944;SDS011;24732;49.088;8.286;2022-08-01T00:06:03;3.80;;;2.53;;
38944;SDS011;24732;49.088;8.286;2022-08-01T00:08:49;3.00;;;2.70;;
38944;SDS011;24732;49.088;8.286;2022-08-01T00:11:36;2.73;;;2.53;;
38944;SDS011;24732;49.088;8.286;2022-08-01T00:14:22;3.10;;;2.80;;
38944;SDS011;24732;49.088;8.286;2022-08-01T00:17:08;3.17;;;2.83;;
38944;SDS011;24732;49.088;8.286;2022-08-01T00:19:55;3.40;;;2.95;;
38944;SDS011;24732;49.088;8.286;2022-08-01T00:22:41;3.42;;;3.13;;
38944;SDS011;24732;49.088;8.286;2022-08-01T00:25:27;3.92;;;2.95;;
38944;SDS011;24732;49.088;8.286;2022-08-01T00:28:14;3.17;;;2.88;;
38944;SDS011;24732;49.088;8.286;2022-08-01T00:31:01;3.15;;;2.90;;
38944;SDS011;24732;49.088;8.286;2022-08-01T00:33:47;3.05;;;2.75;;
38944;SDS011;24732;49.088;8.286;2022-08-01T00:36:34;3.05;;;2.75;;
38944;SDS011;24732;49.088;8.286;2022-08-01T00:39:20;3.15;;;2.95;;
38944;SDS011;24732;49.088;8.286;2022-08-01T00:42:07;3.50;;;2.80;;
38944;SDS011;24732;49.088;8.286;2022-08-01T00:44:53;3.10;;;2.80;;
38944;SDS011;24732;49.088;8.286;2022-08-01T00:47:40;2.80;;;2.60;;
38944;SDS011;24732;49.088;8.286;2022-08-01T00:50:26;2.90;;;2.70;;
38944;SDS011;24732;49.088;8.286;2022-08-01T00:53:13;3.25;;;2.97;;
38944;SDS011;24732;49.088;8.286;2022-08-01T00:55:59;3.13;;;2.83;;
38944;SDS011;24732;49.088;8.286;2022-08-01T00:58:46;4.38;;;2.88;;
38944;SDS011;24732;49.088;8.286;2022-08-01T01:01:32;3.17;;;2.88;;
38944;SDS011;24732;49.088;8.286;2022-08-01T01:04:20;3.10;;;2.80;;
38944;SDS011;24732;49.088;8.286;2022-08-01T01:07:09;3.00;;;2.70;;
38944;SDS011;24732;49.088;8.286;2022-08-01T01:12:50;2.83;;;2.45;;
38944;SDS011;24732;49.088;8.286;2022-08-01T01:18:30;2.90;;;2.70;;
38944;SDS011;24732;49.088;8.286;2022-08-01T01:24:19;2.97;;;2.78;;
38944;SDS011;24732;49.088;8.286;2022-08-01T01:27:10;2.83;;;2.60;;
38944;SDS011;24732;49.088;8.286;2022-08-01T01:30:01;2.75;;;2.55;;
38944;SDS011;24732;49.088;8.286;2022-08-01T01:32:48;2.95;;;2.67;;
38944;SDS011;24732;49.088;8.286;2022-08-01T01:35:36;2.90;;;2.60;;
38944;SDS011;24732;49.088;8.286;2022-08-01T01:38:25;2.88;;;2.60;;
38944;SDS011;24732;49.088;8.286;2022-08-01T01:41:13;3.22;;;2.70;;
38944;SDS011;24732;49.088;8.286;2022-08-01T01:44:04;2.72;;;2.53;;
38944;SDS011;24732;49.088;8.286;2022-08-01T01:46:51;2.73;;;2.53;;
38944;SDS011;24732;49.088;8.286;2022-08-01T01:49:38;2.78;;;2.58;;
38944;SDS011;24732;49.088;8.286;2022-08-01T01:52:25;2.70;;;2.50;;
38944;SDS011;24732;49.088;8.286;2022-08-01T01:55:12;3.05;;;2.50;;
38944;SDS011;24732;49.088;8.286;2022-08-01T01:57:59;3.00;;;2.70;;
38944;SDS011;24732;49.088;8.286;2022-08-01T02:00:46;2.85;;;2.65;;
38944;SDS011;24732;49.088;8.286;2022-08-01T02:03:33;2.90;;;2.70;;
38944;SDS011;24732;49.088;8.286;2022-08-01T02:06:22;3.35;;;2.80;;
38944;SDS011;24732;49.088;8.286;2022-08-01T02:09:12;3.05;;;2.70;;
38944;SDS011;24732;49.088;8.286;2022-08-01T02:12:00;3.00;;;2.60;;
38944;SDS011;24732;49.088;8.286;2022-08-01T02:14:48;3.10;;;2.80;;
38944;SDS011;24732;49.088;8.286;2022-08-01T02:17:37;2.50;;;2.30;;
38944;SDS011;24732;49.088;8.286;2022-08-01T02:20:24;2.80;;;2.60;;
38944;SDS011;24732;49.088;8.286;2022-08-01T02:23:12;3.33;;;2.65;;
38944;SDS011;24732;49.088;8.286;2022-08-01T02:26:00;2.92;;;2.60;;
38944;SDS011;24732;49.088;8.286;2022-08-01T02:28:49;2.95;;;2.70;;
38944;SDS011;24732;49.088;8.286;2022-08-01T02:31:38;3.17;;;2.97;;
38944;SDS011;24732;49.088;8.286;2022-08-01T02:34:25;2.85;;;2.65;;
38944;SDS011;24732;49.088;8.286;2022-08-01T02:37:17;3.50;;;3.03;;
38944;SDS011;24732;49.088;8.286;2022-08-01T02:40:04;3.10;;;2.80;;
38944;SDS011;24732;49.088;8.286;2022-08-01T02:43:01;3.05;;;2.75;;
38944;SDS011;24732;49.088;8.286;2022-08-01T02:45:49;3.23;;;2.93;;
38944;SDS011;24732;49.088;8.286;2022-08-01T02:48:37;3.20;;;2.77;;
38944;SDS011;24732;49.088;8.286;2022-08-01T02:51:24;2.83;;;2.63;;
38944;SDS011;24732;49.088;8.286;2022-08-01T02:54:14;2.97;;;2.60;;
38944;SDS011;24732;49.088;8.286;2022-08-01T02:57:02;2.78;;;2.58;;
38944;SDS011;24732;49.088;8.286;2022-08-01T02:59:49;3.42;;;2.75;;
38944;SDS011;24732;49.088;8.286;2022-08-01T03:02:36;3.00;;;2.70;;
38944;SDS011;24732;49.088;8.286;2022-08-01T03:05:23;2.78;;;2.58;;
38944;SDS011;24732;49.088;8.286;2022-08-01T03:08:10;2.88;;;2.53;;
38944;SDS011;24732;49.088;8.286;2022-08-01T03:10:59;3.08;;;2.70;;
38944;SDS011;24732;49.088;8.286;2022-08-01T03:13:46;2.90;;;2.67;;
38944;SDS011;24732;49.088;8.286;2022-08-01T03:16:33;2.92;;;2.50;;
38944;SDS011;24732;49.088;8.286;2022-08-01T03:19:20;2.72;;;2.53;;
38944;SDS011;24732;49.088;8.286;2022-08-01T03:22:09;3.13;;;2.83;;
38944;SDS011;24732;49.088;8.286;2022-08-01T03:24:58;2.90;;;2.60;;
38944;SDS011;24732;49.088;8.286;2022-08-01T03:27:45;2.97;;;2.60;;
38944;SDS011;24732;49.088;8.286;2022-08-01T03:30:34;3.00;;;2.70;;
38944;SDS011;24732;49.088;8.286;2022-08-01T03:33:21;2.95;;;2.70;;
38944;SDS011;24732;49.088;8.286;2022-08-01T03:36:08;2.90;;;2.70;;
38944;SDS011;24732;49.088;8.286;2022-08-01T03:38:55;2.97;;;2.72;;
38944;SDS011;24732;49.088;8.286;2022-08-01T03:41:45;2.90;;;2.70;;
38944;SDS011;24732;49.088;8.286;2022-08-01T03:44:32;3.10;;;2.80;;
38944;SDS011;24732;49.088;8.286;2022-08-01T03:47:29;2.80;;;2.60;;
38944;SDS011;24732;49.088;8.286;2022-08-01T03:50:17;3.67;;;2.90;;
38944;SDS011;24732;49.088;8.286;2022-08-01T03:53:06;2.90;;;2.60;;
38944;SDS011;24732;49.088;8.286;2022-08-01T03:55:55;3.55;;;2.80;;
38944;SDS011;24732;49.088;8.286;2022-08-01T03:58:42;3.38;;;2.80;;
38944;SDS011;24732;49.088;8.286;2022-08-01T04:01:28;3.10;;;2.70;;
38944;SDS011;24732;49.088;8.286;2022-08-01T04:04:15;3.00;;;2.80;;
38944;SDS011;24732;49.088;8.286;2022-08-01T04:07:02;3.70;;;3.40;;
38944;SDS011;24732;49.088;8.286;2022-08-01T04:09:52;3.20;;;2.80;;
38944;SDS011;24732;49.088;8.286;2022-08-01T04:12:39;3.03;;;2.70;;
38944;SDS011;24732;49.088;8.286;2022-08-01T04:15:25;3.60;;;2.90;;
38944;SDS011;24732;49.088;8.286;2022-08-01T04:18:11;3.30;;;3.00;;
38944;SDS011;24732;49.088;8.286;2022-08-01T04:20:58;2.97;;;2.75;;
38944;SDS011;24732;49.088;8.286;2022-08-01T04:23:44;2.90;;;2.70;;
38944;SDS011;24732;49.088;8.286;2022-08-01T04:26:32;3.25;;;2.95;;
38944;SDS011;24732;49.088;8.286;2022-08-01T04:29:20;3.25;;;2.90;;
38944;SDS011;24732;49.088;8.286;2022-08-01T04:32:09;3.72;;;3.00;;
38944;SDS011;24732;49.088;8.286;2022-08-01T04:34:56;4.28;;;2.97;;
38944;SDS011;24732;49.088;8.286;2022-08-01T04:37:44;3.45;;;3.10;;
38944;SDS011;24732;49.088;8.286;2022-08-01T04:40:31;4.00;;;2.90;;
38944;SDS011;24732;49.088;8.286;2022-08-01T04:43:18;3.10;;;2.80;;
38944;SDS011;24732;49.088;8.286;2022-08-01T04:46:08;3.63;;;2.90;;
38944;SDS011;24732;49.088;8.286;2022-08-01T04:48:55;3.00;;;2.80;;
38944;SDS011;24732;49.088;8.286;2022-08-01T04:51:51;4.85;;;2.80;;
38944;SDS011;24732;49.088;8.286;2022-08-01T04:54:42;3.50;;;3.00;;
38944;SDS011;24732;49.088;8.286;2022-08-01T04:57:29;3.10;;;2.80;;
38944;SDS011;24732;49.088;8.286;2022-08-01T05:00:16;3.20;;;2.90;;
38944;SDS011;24732;49.088;8.286;2022-08-01T05:03:02;3.47;;;3.00;;
38944;SDS011;24732;49.088;8.286;2022-08-01T05:05:48;3.05;;;2.75;;
38944;SDS011;24732;49.088;8.286;2022-08-01T05:08:35;3.27;;;2.90;;
38944;SDS011;24732;49.088;8.286;2022-08-01T05:11:21;3.58;;;3.03;;
38944;SDS011;24732;49.088;8.286;2022-08-01T05:14:07;3.22;;;2.80;;
38944;SDS011;24732;49.088;8.286;2022-08-01T05:16:54;3.42;;;3.13;;
38944;SDS011;24732;49.088;8.286;2022-08-01T05:19:41;3.28;;;2.95;;
38944;SDS011;24732;49.088;8.286;2022-08-01T05:22:28;3.30;;;3.00;;
38944;SDS011;24732;49.088;8.286;2022-08-01T05:25:14;5.90;;;5.40;;
38944;SDS011;24732;49.088;8.286;2022-08-01T05:28:00;4.43;;;4.03;;
38944;SDS011;24732;49.088;8.286;2022-08-01T05:30:47;3.40;;;3.10;;
38944;SDS011;24732;49.088;8.286;2022-08-01T05:33:33;3.45;;;2.95;;
38944;SDS011;24732;49.088;8.286;2022-08-01T05:36:19;3.75;;;3.20;;
38944;SDS011;24732;49.088;8.286;2022-08-01T05:39:06;3.03;;;2.83;;
38944;SDS011;24732;49.088;8.286;2022-08-01T05:41:52;3.33;;;2.80;;
38944;SDS011;24732;49.088;8.286;2022-08-01T05:44:39;3.35;;;3.05;;
38944;SDS011;24732;49.088;8.286;2022-08-01T05:47:28;3.60;;;2.80;;
38944;SDS011;24732;49.088;8.286;2022-08-01T05:50:14;4.07;;;3.13;;
38944;SDS011;24732;49.088;8.286;2022-08-01T05:53:01;4.65;;;2.70;;
38944;SDS011;24732;49.088;8.286;2022-08-01T05:55:48;3.63;;;2.95;;
38944;SDS011;24732;49.088;8.286;2022-08-01T05:58:34;3.10;;;2.88;;
38944;SDS011;24732;49.088;8.286;2022-08-01T06:01:21;3.03;;;2.75;;
38944;SDS011;24732;49.088;8.286;2022-08-01T06:04:07;3.17;;;2.83;;
38944;SDS011;24732;49.088;8.286;2022-08-01T06:06:53;3.10;;;2.80;;
38944;SDS011;24732;49.088;8.286;2022-08-01T06:09:40;4.18;;;2.88;;
38944;SDS011;24732;49.088;8.286;2022-08-01T06:12:26;3.22;;;2.90;;
38944;SDS011;24732;49.088;8.286;2022-08-01T06:15:12;3.00;;;2.80;;
38944;SDS011;24732;49.088;8.286;2022-08-01T06:17:59;3.20;;;2.90;;
38944;SDS011;24732;49.088;8.286;2022-08-01T06:20:45;3.03;;;2.72;;
38944;SDS011;24732;49.088;8.286;2022-08-01T06:23:32;3.25;;;2.92;;
38944;SDS011;24732;49.088;8.286;2022-08-01T06:26:22;2.80;;;2.60;;
38944;SDS011;24732;49.088;8.286;2022-08-01T06:29:08;3.07;;;2.83;;
38944;SDS011;24732;49.088;8.286;2022-08-01T06:31:54;2.60;;;2.40;;
38944;SDS011;24732;49.088;8.286;2022-08-01T06:34:41;3.15;;;2.80;;
38944;SDS011;24732;49.088;8.286;2022-08-01T06:37:31;4.40;;;2.50;;
38944;SDS011;24732;49.088;8.286;2022-08-01T06:40:17;2.63;;;2.38;;
38944;SDS011;24732;49.088;8.286;2022-08-01T06:43:04;2.55;;;2.35;;
38944;SDS011;24732;49.088;8.286;2022-08-01T06:45:50;2.63;;;2.42;;
38944;SDS011;24732;49.088;8.286;2022-08-01T06:48:37;2.73;;;2.43;;
38944;SDS011;24732;49.088;8.286;2022-08-01T06:51:24;2.50;;;2.30;;
38944;SDS011;24732;49.088;8.286;2022-08-01T06:54:10;2.70;;;2.50;;
38944;SDS011;24732;49.088;8.286;2022-08-01T06:56:57;2.60;;;1.90;;
38944;SDS011;24732;49.088;8.286;2022-08-01T06:59:43;3.05;;;1.77;;
38944;SDS011;24732;49.088;8.286;2022-08-01T07:02:30;2.60;;;1.75;;
38944;SDS011;24732;49.088;8.286;2022-08-01T07:05:16;2.30;;;1.90;;
38944;SDS011;24732;49.088;8.286;2022-08-01T07:08:02;2.95;;;1.70;;
38944;SDS011;24732;49.088;8.286;2022-08-01T07:10:49;1.88;;;1.77;;
38944;SDS011;24732;49.088;8.286;2022-08-01T07:13:35;2.95;;;2.20;;
38944;SDS011;24732;49.088;8.286;2022-08-01T07:16:21;4.88;;;2.00;;
38944;SDS011;24732;49.088;8.286;2022-08-01T07:19:08;2.08;;;1.80;;
38944;SDS011;24732;49.088;8.286;2022-08-01T07:21:54;2.23;;;1.80;;
38944;SDS011;24732;49.088;8.286;2022-08-01T07:24:41;2.50;;;1.70;;
38944;SDS011;24732;49.088;8.286;2022-08-01T07:27:27;2.33;;;1.80;;
38944;SDS011;24732;49.088;8.286;2022-08-01T07:30:13;2.55;;;1.60;;
38944;SDS011;24732;49.088;8.286;2022-08-01T07:33:00;2.00;;;1.60;;
38944;SDS011;24732;49.088;8.286;2022-08-01T07:35:46;2.13;;;1.50;;
38944;SDS011;24732;49.088;8.286;2022-08-01T07:38:33;1.60;;;1.50;;
38944;SDS011;24732;49.088;8.286;2022-08-01T07:41:19;1.98;;;1.40;;
38944;SDS011;24732;49.088;8.286;2022-08-01T07:44:05;1.40;;;1.30;;
38944;SDS011;24732;49.088;8.286;2022-08-01T07:46:52;1.85;;;1.30;;
38944;SDS011;24732;49.088;8.286;2022-08-01T07:49:38;1.83;;;1.20;;
38944;SDS011;24732;49.088;8.286;2022-08-01T07:52:24;1.38;;;1.20;;
38944;SDS011;24732;49.088;8.286;2022-08-01T07:55:12;1.80;;;1.25;;
38944;SDS011;24732;49.088;8.286;2022-08-01T07:57:58;1.98;;;1.30;;
38944;SDS011;24732;49.088;8.286;2022-08-01T08:00:45;1.40;;;1.17;;
38944;SDS011;24732;49.088;8.286;2022-08-01T08:03:31;1.63;;;1.33;;
38944;SDS011;24732;49.088;8.286;2022-08-01T08:06:17;2.00;;;1.50;;
38944;SDS011;24732;49.088;8.286;2022-08-01T08:09:04;1.48;;;1.30;;
38944;SDS011;24732;49.088;8.286;2022-08-01T08:11:50;1.40;;;1.30;;
38944;SDS011;24732;49.088;8.286;2022-08-01T08:14:36;1.33;;;1.20;;
38944;SDS011;24732;49.088;8.286;2022-08-01T08:17:23;2.28;;;1.40;;
38944;SDS011;24732;49.088;8.286;2022-08-01T08:20:09;1.63;;;1.40;;
38944;SDS011;24732;49.088;8.286;2022-08-01T08:22:56;1.40;;;1.30;;
38944;SDS011;24732;49.088;8.286;2022-08-01T08:25:43;1.50;;;1.30;;
38944;SDS011;24732;49.088;8.286;2022-08-01T08:28:30;1.40;;;1.30;;
38944;SDS011;24732;49.088;8.286;2022-08-01T08:31:16;1.48;;;1.30;;
38944;SDS011;24732;49.088;8.286;2022-08-01T08:34:02;1.60;;;1.30;;
38944;SDS011;24732;49.088;8.286;2022-08-01T08:36:49;1.30;;;1.20;;
38944;SDS011;24732;49.088;8.286;2022-08-01T08:39:35;2.13;;;1.35;;
38944;SDS011;24732;49.088;8.286;2022-08-01T08:42:22;1.50;;;1.27;;
38944;SDS011;24732;49.088;8.286;2022-08-01T08:45:08;1.50;;;1.40;;
38944;SDS011;24732;49.088;8.286;2022-08-01T08:47:55;1.48;;;1.38;;
38944;SDS011;24732;49.088;8.286;2022-08-01T08:50:43;1.38;;;1.27;;
38944;SDS011;24732;49.088;8.286;2022-08-01T08:53:31;1.40;;;1.30;;
38944;SDS011;24732;49.088;8.286;2022-08-01T08:56:19;1.35;;;1.25;;
38944;SDS011;24732;49.088;8.286;2022-08-01T08:59:05;1.30;;;1.20;;
38944;SDS011;24732;49.088;8.286;2022-08-01T09:01:51;1.40;;;1.30;;
38944;SDS011;24732;49.088;8.286;2022-08-01T09:04:38;2.00;;;1.33;;
38944;SDS011;24732;49.088;8.286;2022-08-01T09:07:25;2.10;;;1.30;;
38944;SDS011;24732;49.088;8.286;2022-08-01T09:10:11;1.73;;;1.25;;
38944;SDS011;24732;49.088;8.286;2022-08-01T09:13:16;2.23;;;1.30;;
38944;SDS011;24732;49.088;8.286;2022-08-01T09:16:02;2.75;;;1.40;;
38944;SDS011;24732;49.088;8.286;2022-08-01T09:18:53;1.58;;;1.40;;
38944;SDS011;24732;49.088;8.286;2022-08-01T09:21:40;1.90;;;1.40;;
38944;SDS011;24732;49.088;8.286;2022-08-01T09:24:41;1.90;;;1.60;;
38944;SDS011;24732;49.088;8.286;2022-08-01T09:27:27;3.00;;;1.85;;
38944;SDS011;24732;49.088;8.286;2022-08-01T09:30:15;1.60;;;1.50;;
38944;SDS011;24732;49.088;8.286;2022-08-01T09:33:02;1.93;;;1.40;;
38944;SDS011;24732;49.088;8.286;2022-08-01T09:35:55;2.20;;;1.50;;
38944;SDS011;24732;49.088;8.286;2022-08-01T09:38:42;2.20;;;1.50;;
38944;SDS011;24732;49.088;8.286;2022-08-01T09:41:29;2.57;;;1.60;;
38944;SDS011;24732;49.088;8.286;2022-08-01T09:44:16;2.93;;;1.53;;
38944;SDS011;24732;49.088;8.286;2022-08-01T09:47:03;2.10;;;1.63;;
38944;SDS011;24732;49.088;8.286;2022-08-01T09:49:56;2.10;;;1.73;;
38944;SDS011;24732;49.088;8.286;2022-08-01T09:52:52;2.90;;;1.50;;
38944;SDS011;24732;49.088;8.286;2022-08-01T09:55:41;1.70;;;1.60;;
38944;SDS011;24732;49.088;8.286;2022-08-01T09:58:49;2.75;;;1.60;;
38944;SDS011;24732;49.088;8.286;2022-08-01T10:01:41;1.85;;;1.65;;
38944;SDS011;24732;49.088;8.286;2022-08-01T10:04:28;2.38;;;1.63;;
38944;SDS011;24732;49.088;8.286;2022-08-01T10:07:15;1.80;;;1.60;;
38944;SDS011;24732;49.088;8.286;2022-08-01T10:12:58;1.67;;;1.50;;
38944;SDS011;24732;49.088;8.286;2022-08-01T10:15:44;1.70;;;1.60;;
38944;SDS011;24732;49.088;8.286;2022-08-01T10:18:32;1.80;;;1.70;;
38944;SDS011;24732;49.088;8.286;2022-08-01T10:21:18;1.88;;;1.60;;
38944;SDS011;24732;49.088;8.286;2022-08-01T10:24:05;1.83;;;1.73;;
38944;SDS011;24732;49.088;8.286;2022-08-01T10:26:59;2.45;;;1.80;;
38944;SDS011;24732;49.088;8.286;2022-08-01T10:29:55;2.30;;;1.80;;
38944;SDS011;24732;49.088;8.286;2022-08-01T10:32:42;1.80;;;1.60;;
38944;SDS011;24732;49.088;8.286;2022-08-01T10:35:28;3.67;;;1.65;;
38944;SDS011;24732;49.088;8.286;2022-08-01T10:38:16;1.85;;;1.70;;
38944;SDS011;24732;49.088;8.286;2022-08-01T10:41:22;1.80;;;1.60;;
38944;SDS011;24732;49.088;8.286;2022-08-01T10:44:09;2.47;;;1.70;;
38944;SDS011;24732;49.088;8.286;2022-08-01T10:46:57;1.70;;;1.60;;
38944;SDS011;24732;49.088;8.286;2022-08-01T10:49:53;1.90;;;1.67;;
38944;SDS011;24732;49.088;8.286;2022-08-01T10:52:41;2.70;;;1.80;;
38944;SDS011;24732;49.088;8.286;2022-08-01T10:55:27;1.92;;;1.70;;
38944;SDS011;24732;49.088;8.286;2022-08-01T10:58:19;1.75;;;1.65;;
38944;SDS011;24732;49.088;8.286;2022-08-01T11:04:11;1.70;;;1.60;;
38944;SDS011;24732;49.088;8.286;2022-08-01T11:10:16;1.60;;;1.50;;
38944;SDS011;24732;49.088;8.286;2022-08-01T11:13:00;1.83;;;1.63;;
38944;SDS011;24732;49.088;8.286;2022-08-01T11:15:48;2.28;;;1.55;;
38944;SDS011;24732;49.088;8.286;2022-08-01T11:18:35;2.50;;;1.80;;
38944;SDS011;24732;49.088;8.286;2022-08-01T11:21:21;1.80;;;1.70;;
38944;SDS011;24732;49.088;8.286;2022-08-01T11:24:11;1.75;;;1.60;;
38944;SDS011;24732;49.088;8.286;2022-08-01T11:32:59;1.70;;;1.60;;
38944;SDS011;24732;49.088;8.286;2022-08-01T11:41:46;1.83;;;1.67;;
38944;SDS011;24732;49.088;8.286;2022-08-01T11:44:33;2.75;;;1.45;;
38944;SDS011;24732;49.088;8.286;2022-08-01T11:50:34;2.13;;;1.60;;
38944;SDS011;24732;49.088;8.286;2022-08-01T11:53:20;1.85;;;1.67;;
38944;SDS011;24732;49.088;8.286;2022-08-01T11:56:07;1.60;;;1.50;;
38944;SDS011;24732;49.088;8.286;2022-08-01T11:58:58;3.30;;;2.10;;
38944;SDS011;24732;49.088;8.286;2022-08-01T12:01:44;1.75;;;1.65;;
38944;SDS011;24732;49.088;8.286;2022-08-01T12:04:53;2.40;;;1.60;;
38944;SDS011;24732;49.088;8.286;2022-08-01T12:07:38;2.22;;;1.65;;
38944;SDS011;24732;49.088;8.286;2022-08-01T12:10:27;2.10;;;1.60;;
38944;SDS011;24732;49.088;8.286;2022-08-01T12:13:18;2.13;;;1.80;;
38944;SDS011;24732;49.088;8.286;2022-08-01T12:16:09;1.87;;;1.60;;
38944;SDS011;24732;49.088;8.286;2022-08-01T12:18:55;3.05;;;1.52;;
38944;SDS011;24732;49.088;8.286;2022-08-01T12:21:42;1.58;;;1.48;;
38944;SDS011;24732;49.088;8.286;2022-08-01T12:24:28;1.70;;;1.40;;
38944;SDS011;24732;49.088;8.286;2022-08-01T12:27:24;2.30;;;1.70;;
38944;SDS011;24732;49.088;8.286;2022-08-01T12:30:12;1.42;;;1.30;;
38944;SDS011;24732;49.088;8.286;2022-08-01T12:33:01;2.07;;;1.50;;
38944;SDS011;24732;49.088;8.286;2022-08-01T12:35:47;1.42;;;1.33;;
38944;SDS011;24732;49.088;8.286;2022-08-01T12:38:34;1.40;;;1.30;;
38944;SDS011;24732;49.088;8.286;2022-08-01T12:41:20;1.60;;;1.50;;
38944;SDS011;24732;49.088;8.286;2022-08-01T12:44:12;2.50;;;1.40;;
38944;SDS011;24732;49.088;8.286;2022-08-01T12:47:02;1.63;;;1.40;;
38944;SDS011;24732;49.088;8.286;2022-08-01T12:49:52;1.67;;;1.45;;
38944;SDS011;24732;49.088;8.286;2022-08-01T12:52:39;1.55;;;1.45;;
38944;SDS011;24732;49.088;8.286;2022-08-01T12:55:29;1.67;;;1.35;;
38944;SDS011;24732;49.088;8.286;2022-08-01T12:58:17;1.40;;;1.30;;
38944;SDS011;24732;49.088;8.286;2022-08-01T13:01:05;2.80;;;1.50;;
38944;SDS011;24732;49.088;8.286;2022-08-01T13:04:01;1.90;;;1.30;;
38944;SDS011;24732;49.088;8.286;2022-08-01T13:06:54;2.08;;;1.50;;
38944;SDS011;24732;49.088;8.286;2022-08-01T13:09:50;1.75;;;1.65;;
38944;SDS011;24732;49.088;8.286;2022-08-01T13:12:37;1.50;;;1.40;;
38944;SDS011;24732;49.088;8.286;2022-08-01T13:15:25;1.60;;;1.50;;
38944;SDS011;24732;49.088;8.286;2022-08-01T13:18:28;1.40;;;1.30;;
38944;SDS011;24732;49.088;8.286;2022-08-01T13:24:11;1.73;;;1.63;;
38944;SDS011;24732;49.088;8.286;2022-08-01T13:26:58;1.60;;;1.37;;
38944;SDS011;24732;49.088;8.286;2022-08-01T13:29:45;1.90;;;1.60;;
38944;SDS011;24732;49.088;8.286;2022-08-01T13:32:35;2.15;;;1.50;;
38944;SDS011;24732;49.088;8.286;2022-08-01T13:35:21;2.13;;;1.30;;
38944;SDS011;24732;49.088;8.286;2022-08-01T13:38:07;1.40;;;1.30;;
38944;SDS011;24732;49.088;8.286;2022-08-01T13:40:57;1.40;;;1.30;;
38944;SDS011;24732;49.088;8.286;2022-08-01T13:43:43;1.80;;;1.42;;
38944;SDS011;24732;49.088;8.286;2022-08-01T13:46:30;1.90;;;1.33;;
38944;SDS011;24732;49.088;8.286;2022-08-01T13:49:16;1.90;;;1.40;;
38944;SDS011;24732;49.088;8.286;2022-08-01T13:52:03;2.00;;;1.50;;
38944;SDS011;24732;49.088;8.286;2022-08-01T13:54:51;1.88;;;1.40;;
38944;SDS011;24732;49.088;8.286;2022-08-01T13:57:37;2.28;;;1.40;;
38944;SDS011;24732;49.088;8.286;2022-08-01T14:00:24;1.77;;;1.30;;
38944;SDS011;24732;49.088;8.286;2022-08-01T14:03:10;1.45;;;1.30;;
38944;SDS011;24732;49.088;8.286;2022-08-01T14:05:56;2.97;;;1.40;;
38944;SDS011;24732;49.088;8.286;2022-08-01T14:08:43;1.67;;;1.40;;
38944;SDS011;24732;49.088;8.286;2022-08-01T14:11:30;1.63;;;1.48;;
38944;SDS011;24732;49.088;8.286;2022-08-01T14:14:16;1.40;;;1.30;;
38944;SDS011;24732;49.088;8.286;2022-08-01T14:17:02;1.30;;;1.20;;
38944;SDS011;24732;49.088;8.286;2022-08-01T14:19:49;1.30;;;1.20;;
38944;SDS011;24732;49.088;8.286;2022-08-01T14:22:35;1.92;;;1.52;;
38944;SDS011;24732;49.088;8.286;2022-08-01T14:25:22;2.60;;;1.30;;
38944;SDS011;24732;49.088;8.286;2022-08-01T14:28:08;1.70;;;1.50;;
38944;SDS011;24732;49.088;8.286;2022-08-01T14:30:58;1.45;;;1.33;;
38944;SDS011;24732;49.088;8.286;2022-08-01T14:33:45;1.40;;;1.30;;
38944;SDS011;24732;49.088;8.286;2022-08-01T14:36:31;1.80;;;1.30;;
38944;SDS011;24732;49.088;8.286;2022-08-01T14:39:17;1.67;;;1.40;;
38944;SDS011;24732;49.088;8.286;2022-08-01T14:42:04;1.50;;;1.40;;
38944;SDS011;24732;49.088;8.286;2022-08-01T14:44:50;1.30;;;1.20;;
38944;SDS011;24732;49.088;8.286;2022-08-01T14:47:37;1.95;;;1.20;;
38944;SDS011;24732;49.088;8.286;2022-08-01T14:50:24;1.50;;;1.40;;
38944;SDS011;24732;49.088;8.286;2022-08-01T14:53:11;1.88;;;1.40;;
38944;SDS011;24732;49.088;8.286;2022-08-01T14:55:58;1.80;;;1.40;;
38944;SDS011;24732;49.088;8.286;2022-08-01T14:58:44;1.67;;;1.20;;
38944;SDS011;24732;49.088;8.286;2022-08-01T15:01:34;1.40;;;1.30;;
38944;SDS011;24732;49.088;8.286;2022-08-01T15:04:20;2.50;;;1.45;;
38944;SDS011;24732;49.088;8.286;2022-08-01T15:07:07;1.58;;;1.40;;
38944;SDS011;24732;49.088;8.286;2022-08-01T15:09:53;2.40;;;1.52;;
38944;SDS011;24732;49.088;8.286;2022-08-01T15:12:39;1.70;;;1.30;;
38944;SDS011;24732;49.088;8.286;2022-08-01T15:15:26;1.63;;;1.40;;
38944;SDS011;24732;49.088;8.286;2022-08-01T15:18:12;2.03;;;1.40;;
38944;SDS011;24732;49.088;8.286;2022-08-01T15:20:59;2.20;;;1.50;;
38944;SDS011;24732;49.088;8.286;2022-08-01T15:23:45;1.60;;;1.50;;
38944;SDS011;24732;49.088;8.286;2022-08-01T15:26:31;2.57;;;1.50;;
38944;SDS011;24732;49.088;8.286;2022-08-01T15:29:17;1.60;;;1.30;;
38944;SDS011;24732;49.088;8.286;2022-08-01T15:32:04;1.60;;;1.50;;
38944;SDS011;24732;49.088;8.286;2022-08-01T15:34:51;1.52;;;1.42;;
38944;SDS011;24732;49.088;8.286;2022-08-01T15:37:38;2.72;;;1.50;;
38944;SDS011;24732;49.088;8.286;2022-08-01T15:40:24;2.35;;;1.40;;
38944;SDS011;24732;49.088;8.286;2022-08-01T15:43:11;1.70;;;1.38;;
38944;SDS011;24732;49.088;8.286;2022-08-01T15:45:58;1.53;;;1.40;;
38944;SDS011;24732;49.088;8.286;2022-08-01T15:48:45;1.30;;;1.20;;
38944;SDS011;24732;49.088;8.286;2022-08-01T15:51:32;1.48;;;1.38;;
38944;SDS011;24732;49.088;8.286;2022-08-01T15:54:18;1.35;;;1.25;;
38944;SDS011;24732;49.088;8.286;2022-08-01T15:57:05;1.65;;;1.30;;
38944;SDS011;24732;49.088;8.286;2022-08-01T15:59:51;1.30;;;1.20;;
38944;SDS011;24732;49.088;8.286;2022-08-01T16:02:37;1.83;;;1.20;;
38944;SDS011;24732;49.088;8.286;2022-08-01T16:05:24;1.38;;;1.27;;
38944;SDS011;24732;49.088;8.286;2022-08-01T16:08:11;1.20;;;1.10;;
38944;SDS011;24732;49.088;8.286;2022-08-01T16:11:00;1.90;;;1.30;;
38944;SDS011;24732;49.088;8.286;2022-08-01T16:20:16;1.40;;;1.10;;
38944;SDS011;24732;49.088;8.286;2022-08-01T16:23:02;1.50;;;1.00;;
38944;SDS011;24732;49.088;8.286;2022-08-01T16:25:49;1.17;;;1.00;;
38944;SDS011;24732;49.088;8.286;2022-08-01T16:28:35;1.05;;;0.93;;
38944;SDS011;24732;49.088;8.286;2022-08-01T16:31:22;1.00;;;0.90;;
38944;SDS011;24732;49.088;8.286;2022-08-01T16:34:09;1.53;;;0.90;;
38944;SDS011;24732;49.088;8.286;2022-08-01T16:36:55;1.35;;;1.10;;
38944;SDS011;24732;49.088;8.286;2022-08-01T16:39:41;1.23;;;0.93;;
38944;SDS011;24732;49.088;8.286;2022-08-01T16:42:29;1.27;;;1.07;;
38944;SDS011;24732;49.088;8.286;2022-08-01T16:45:16;1.20;;;1.10;;
38944;SDS011;24732;49.088;8.286;2022-08-01T16:48:05;1.38;;;0.90;;
38944;SDS011;24732;49.088;8.286;2022-08-01T16:50:51;1.50;;;1.00;;
38944;SDS011;24732;49.088;8.286;2022-08-01T16:53:38;1.08;;;0.90;;
38944;SDS011;24732;49.088;8.286;2022-08-01T16:56:24;1.42;;;0.90;;
38944;SDS011;24732;49.088;8.286;2022-08-01T16:59:11;1.45;;;1.00;;
38944;SDS011;24732;49.088;8.286;2022-08-01T17:01:57;2.15;;;1.00;;
38944;SDS011;24732;49.088;8.286;2022-08-01T17:04:43;1.13;;;1.02;;
38944;SDS011;24732;49.088;8.286;2022-08-01T17:07:30;1.80;;;1.10;;
38944;SDS011;24732;49.088;8.286;2022-08-01T17:10:16;1.20;;;1.00;;
38944;SDS011;24732;49.088;8.286;2022-08-01T17:13:03;1.90;;;0.90;;
38944;SDS011;24732;49.088;8.286;2022-08-01T17:15:50;1.73;;;1.07;;
38944;SDS011;24732;49.088;8.286;2022-08-01T17:18:37;1.55;;;1.00;;
38944;SDS011;24732;49.088;8.286;2022-08-01T17:21:23;1.25;;;1.00;;
38944;SDS011;24732;49.088;8.286;2022-08-01T17:24:10;1.20;;;1.10;;
38944;SDS011;24732;49.088;8.286;2022-08-01T17:26:56;1.83;;;0.90;;
38944;SDS011;24732;49.088;8.286;2022-08-01T17:29:43;1.42;;;0.90;;
38944;SDS011;24732;49.088;8.286;2022-08-01T17:32:29;1.47;;;1.00;;